Time;durP1;ratioP1;P1;durP2;ratioP2;P2;SDS_P1;SDS_P2;PMS_P1;PMS_P2;Temp;Humidity;BMP_temperature;BMP_pressure;BME280_temperature;BME280_humidity;BME280_pressure;Samples;Min_cycle;Max_cycle;Signal;HPM_P1;HPM_P2
2022/07/20 00:01:06;;;;;;;4.97;4.10;;;26.20;1.00;;;;;;4983887;28;25069;-62
2022/07/20 00:03:31;;;;;;;5.68;3.88;;;26.20;3.60;;;;;;4991918;28;25142;-63
2022/07/20 00:05:57;;;;;;;16.73;4.30;;;26.20;1.00;;;;;;4994392;28;25049;-63
2022/07/20 00:11:25;;;;;;;8.90;3.50;;;26.10;1.00;;;;;;4989559;28;25089;-63
2022/07/20 00:13:56;;;;;;;11.65;3.88;;;26.20;1.00;;;;;;5000573;28;25075;-63
2022/07/20 00:16:24;;;;;;;9.57;4.28;;;26.20;1.00;;;;;;4987670;28;25062;-63
2022/07/20 00:18:50;;;;;;;7.78;4.15;;;26.10;1.00;;;;;;4996825;28;25059;-62
2022/07/20 00:21:16;;;;;;;8.10;3.85;;;26.20;1.00;;;;;;4993073;28;25056;-61
2022/07/20 00:23:42;;;;;;;5.90;3.70;;;26.30;1.00;;;;;;4987468;28;25071;-62
2022/07/20 00:26:09;;;;;;;10.50;4.03;;;26.30;1.00;;;;;;4989423;28;25076;-62
2022/07/20 00:28:35;;;;;;;13.55;3.60;;;26.30;1.00;;;;;;4984061;28;25157;-63
2022/07/20 00:31:00;;;;;;;9.23;3.72;;;26.30;1.00;;;;;;4998841;28;25077;-63
2022/07/20 00:33:26;;;;;;;9.23;3.67;;;26.40;1.00;;;;;;5000246;28;25070;-62
2022/07/20 00:35:51;;;;;;;7.75;4.10;;;26.20;1.00;;;;;;4991357;28;25077;-61
2022/07/20 00:38:17;;;;;;;7.85;3.85;;;26.10;1.00;;;;;;4993752;28;25132;-63
2022/07/20 00:40:43;;;;;;;7.63;3.60;;;26.10;1.00;;;;;;4997695;28;25084;-62
2022/07/20 00:43:08;;;;;;;7.15;3.67;;;26.10;1.00;;;;;;4981342;28;25082;-61
2022/07/20 00:45:34;;;;;;;14.77;4.38;;;26.10;1.00;;;;;;4994395;28;25101;-62
2022/07/20 00:48:00;;;;;;;7.53;3.70;;;26.00;1.00;;;;;;4992368;28;25083;-62
2022/07/20 00:50:26;;;;;;;9.70;4.05;;;26.00;1.00;;;;;;4991972;28;25075;-63
2022/07/20 00:52:52;;;;;;;8.85;3.88;;;25.90;1.00;;;;;;4991155;28;25069;-62
2022/07/20 00:55:18;;;;;;;8.82;3.75;;;25.90;1.00;;;;;;4988551;28;25062;-63
2022/07/20 00:57:43;;;;;;;10.43;3.95;;;25.90;1.00;;;;;;5007676;28;25203;-63
2022/07/20 01:00:10;;;;;;;7.10;4.07;;;25.90;1.00;;;;;;4998505;28;25092;-62
2022/07/20 01:02:37;;;;;;;10.88;3.80;;;25.80;1.00;;;;;;4988385;28;25136;-63
2022/07/20 01:05:04;;;;;;;7.35;3.90;;;25.80;1.00;;;;;;4991690;28;25110;-62
2022/07/20 01:07:30;;;;;;;11.52;4.53;;;25.70;1.00;;;;;;4987436;28;25109;-63
2022/07/20 01:09:55;;;;;;;10.02;4.00;;;25.60;1.00;;;;;;4991356;28;25162;-63
2022/07/20 01:12:21;;;;;;;13.57;4.55;;;25.60;1.00;;;;;;4987796;28;25069;-64
2022/07/20 01:14:53;;;;;;;7.63;4.22;;;25.60;1.00;;;;;;4995641;28;25070;-62
2022/07/20 01:17:19;;;;;;;8.35;3.63;;;25.70;1.00;;;;;;4998489;28;25135;-62
2022/07/20 01:19:44;;;;;;;14.52;4.40;;;25.60;1.00;;;;;;4993037;28;25096;-63
2022/07/20 01:22:10;;;;;;;9.25;4.18;;;25.50;1.00;;;;;;4991813;28;25090;-66
2022/07/20 01:24:35;;;;;;;9.25;3.58;;;25.50;1.00;;;;;;4992394;28;25081;-62
2022/07/20 01:27:04;;;;;;;14.07;4.18;;;25.40;1.00;;;;;;4991816;28;25056;-63
2022/07/20 01:29:30;;;;;;;10.63;4.78;;;25.30;1.00;;;;;;4997805;28;25056;-63
2022/07/20 01:31:55;;;;;;;12.55;5.95;;;25.20;1.00;;;;;;4985976;28;25141;-63
2022/07/20 01:34:21;;;;;;;17.60;7.78;;;25.00;15.30;;;;;;4985804;28;25056;-63
2022/07/20 01:36:47;;;;;;;26.50;9.10;;;25.00;45.70;;;;;;4991762;28;25068;-64
2022/07/20 01:39:13;;;;;;;25.13;10.35;;;24.90;71.60;;;;;;4990502;28;25062;-63
2022/07/20 01:41:38;;;;;;;19.70;11.80;;;24.80;86.80;;;;;;4997067;28;25071;-62
2022/07/20 01:44:04;;;;;;;19.42;11.68;;;24.70;94.00;;;;;;4980861;28;25113;-63
2022/07/20 01:46:29;;;;;;;32.50;14.85;;;24.60;96.30;;;;;;4991114;28;25148;-63
2022/07/20 01:48:55;;;;;;;29.23;16.85;;;24.50;99.90;;;;;;4991645;28;25057;-63
2022/07/20 01:51:21;;;;;;;35.38;17.88;;;24.30;99.90;;;;;;4990914;28;25150;-62
2022/07/20 01:53:46;;;;;;;33.88;19.70;;;24.20;99.90;;;;;;4999538;28;25065;-63
2022/07/20 01:56:12;;;;;;;30.08;19.40;;;24.20;99.90;;;;;;4996576;28;25068;-64
2022/07/20 01:58:37;;;;;;;45.00;21.02;;;24.20;99.90;;;;;;4991335;28;25075;-62
2022/07/20 02:01:03;;;;;;;33.50;18.73;;;24.10;99.90;;;;;;4994017;28;25132;-63
2022/07/20 02:03:28;;;;;;;33.03;20.83;;;24.00;99.90;;;;;;4983911;28;25133;-64
2022/07/20 02:05:54;;;;;;;42.28;21.23;;;24.00;99.90;;;;;;4989286;28;25066;-63
2022/07/20 02:08:24;;;;;;;36.58;21.20;;;23.90;99.90;;;;;;4994075;28;25060;-63
2022/07/20 02:10:51;;;;;;;33.78;22.35;;;23.90;99.90;;;;;;4992785;28;25158;-64
2022/07/20 02:13:16;;;;;;;42.38;23.65;;;23.80;99.90;;;;;;5000908;28;25099;-62
2022/07/20 02:18:26;;;;;;;41.35;27.77;;;23.80;99.90;;;;;;4995230;28;25062;-65
2022/07/20 02:20:52;;;;;;;47.70;27.33;;;23.80;99.90;;;;;;4999038;28;25058;-63
2022/07/20 02:23:17;;;;;;;48.20;29.13;;;23.70;99.90;;;;;;4998769;28;25058;-64
2022/07/20 02:25:43;;;;;;;49.00;29.42;;;23.80;99.90;;;;;;4992676;28;25067;-63
2022/07/20 02:28:08;;;;;;;43.75;30.42;;;23.70;99.90;;;;;;4995792;28;25105;-64
2022/07/20 02:30:35;;;;;;;60.35;31.25;;;23.70;99.90;;;;;;4998960;28;25066;-62
2022/07/20 02:33:03;;;;;;;44.22;30.20;;;23.60;99.90;;;;;;4985508;28;25072;-65
2022/07/20 02:35:29;;;;;;;52.38;31.20;;;23.60;99.90;;;;;;4987111;28;25099;-64
2022/07/20 02:37:55;;;;;;;53.40;31.08;;;23.70;99.90;;;;;;4995972;28;25095;-63
2022/07/20 02:40:20;;;;;;;48.85;32.33;;;23.70;99.90;;;;;;4999564;28;25086;-64
2022/07/20 02:42:46;;;;;;;51.80;32.63;;;23.60;99.90;;;;;;4996252;28;25083;-63
2022/07/20 02:45:11;;;;;;;57.03;34.25;;;23.60;99.90;;;;;;4992688;28;25077;-62
2022/07/20 02:47:44;;;;;;;49.28;34.80;;;23.60;99.90;;;;;;4990466;28;25145;-64
2022/07/20 02:50:11;;;;;;;48.35;33.30;;;23.60;99.90;;;;;;4995378;28;25082;-63
2022/07/20 02:52:37;;;;;;;53.92;34.33;;;23.50;99.90;;;;;;4992979;28;25151;-62
2022/07/20 02:55:03;;;;;;;54.15;34.70;;;23.50;99.90;;;;;;4995327;28;25039;-63
2022/07/20 02:57:29;;;;;;;51.63;34.05;;;23.50;99.90;;;;;;4988427;28;25077;-62
2022/07/20 02:59:54;;;;;;;61.10;35.38;;;23.50;99.90;;;;;;4993738;28;25332;-63
2022/07/20 03:02:20;;;;;;;52.72;33.85;;;23.50;99.90;;;;;;5002841;28;25073;-63
2022/07/20 03:04:45;;;;;;;50.17;34.63;;;23.50;99.90;;;;;;4989020;28;25062;-63
2022/07/20 03:07:11;;;;;;;49.67;35.40;;;23.40;99.90;;;;;;4987983;28;25054;-63
2022/07/20 03:09:36;;;;;;;58.53;36.75;;;23.50;99.90;;;;;;4986404;28;25064;-61
2022/07/20 03:12:02;;;;;;;56.22;35.85;;;23.40;99.90;;;;;;4984762;28;25108;-64
2022/07/20 03:14:27;;;;;;;57.47;37.13;;;23.40;99.90;;;;;;4989740;28;25129;-64
2022/07/20 03:16:53;;;;;;;50.58;35.85;;;23.40;99.90;;;;;;4993071;28;25123;-63
2022/07/20 03:19:18;;;;;;;49.40;35.30;;;23.30;99.90;;;;;;4988695;28;25099;-63
2022/07/20 03:21:44;;;;;;;54.08;36.88;;;23.40;99.90;;;;;;5000158;28;25142;-64
2022/07/20 03:24:09;;;;;;;54.55;35.63;;;23.40;99.90;;;;;;4988454;28;25082;-63
2022/07/20 03:26:35;;;;;;;53.70;35.88;;;23.30;99.90;;;;;;4996724;28;25160;-64
2022/07/20 03:29:00;;;;;;;55.67;37.47;;;23.30;99.90;;;;;;4987647;28;25086;-64
2022/07/20 03:31:26;;;;;;;54.85;35.70;;;23.30;99.90;;;;;;4999971;28;25066;-63
2022/07/20 03:33:51;;;;;;;53.58;35.47;;;23.30;99.90;;;;;;4990459;28;25109;-63
2022/07/20 03:36:17;;;;;;;57.22;35.28;;;23.30;99.90;;;;;;4988997;28;25102;-62
2022/07/20 03:38:42;;;;;;;53.95;35.08;;;23.30;99.90;;;;;;4992908;28;25087;-63
2022/07/20 03:41:08;;;;;;;55.58;35.35;;;23.20;99.90;;;;;;4992290;28;25075;-62
2022/07/20 03:43:33;;;;;;;51.95;34.33;;;23.30;99.90;;;;;;5004861;28;25091;-63
2022/07/20 03:45:59;;;;;;;52.40;33.15;;;23.20;99.90;;;;;;4998628;28;25138;-63
2022/07/20 03:48:24;;;;;;;48.05;32.13;;;23.20;99.90;;;;;;5001318;28;25065;-64
2022/07/20 03:50:50;;;;;;;49.00;32.15;;;23.10;99.90;;;;;;4998846;28;25070;-62
2022/07/20 03:53:15;;;;;;;43.08;29.60;;;23.00;99.90;;;;;;4998171;28;25151;-63
2022/07/20 03:55:41;;;;;;;40.35;28.90;;;23.10;99.90;;;;;;4996585;28;25065;-63
2022/07/20 03:58:07;;;;;;;42.00;27.65;;;23.00;99.90;;;;;;4996687;28;25069;-63
2022/07/20 04:00:32;;;;;;;48.78;27.48;;;23.10;99.90;;;;;;4995686;28;25087;-64
2022/07/20 04:02:58;;;;;;;42.65;28.35;;;23.20;99.90;;;;;;4994980;28;25107;-63
2022/07/20 04:05:23;;;;;;;46.55;27.48;;;23.20;99.90;;;;;;5000729;28;25137;-64
2022/07/20 04:07:49;;;;;;;40.83;25.60;;;23.20;99.90;;;;;;4993260;28;25072;-64
2022/07/20 04:10:15;;;;;;;38.22;25.30;;;23.10;99.90;;;;;;4992305;28;25065;-66
2022/07/20 04:12:40;;;;;;;44.13;24.88;;;23.10;99.90;;;;;;4995396;28;25076;-63
2022/07/20 04:15:07;;;;;;;41.67;23.80;;;23.10;99.90;;;;;;4985864;28;25083;-64
2022/07/20 04:17:33;;;;;;;38.58;22.00;;;23.20;99.90;;;;;;4989677;28;25094;-64
2022/07/20 04:19:58;;;;;;;37.30;23.60;;;23.20;99.90;;;;;;4987979;28;25098;-64
2022/07/20 04:22:24;;;;;;;42.40;22.92;;;23.20;99.90;;;;;;4995003;28;25089;-64
2022/07/20 04:24:49;;;;;;;36.53;21.40;;;23.20;99.90;;;;;;4992702;28;25066;-64
2022/07/20 04:27:15;;;;;;;41.10;21.27;;;23.20;99.90;;;;;;4990406;28;25059;-64
2022/07/20 04:29:40;;;;;;;36.72;21.90;;;23.20;99.90;;;;;;4991639;28;25082;-64
2022/07/20 04:32:07;;;;;;;34.95;20.73;;;23.30;99.90;;;;;;4990134;28;25172;-64
2022/07/20 04:34:32;;;;;;;36.70;20.00;;;23.20;99.90;;;;;;4989460;28;25066;-63
2022/07/20 04:36:58;;;;;;;32.58;19.95;;;23.20;99.90;;;;;;4989539;28;25153;-62
2022/07/20 04:39:24;;;;;;;37.28;20.52;;;23.10;99.90;;;;;;4988477;28;25065;-62
2022/07/20 04:41:50;;;;;;;32.55;19.52;;;23.20;99.90;;;;;;4990162;28;25109;-62
2022/07/20 04:44:15;;;;;;;34.95;19.42;;;23.10;99.90;;;;;;4992892;28;25075;-62
2022/07/20 04:46:41;;;;;;;32.97;19.02;;;23.20;99.90;;;;;;4989007;28;25071;-62
2022/07/20 04:49:07;;;;;;;35.20;18.88;;;23.10;99.90;;;;;;5000048;28;25136;-62
2022/07/20 04:51:33;;;;;;;32.33;17.88;;;23.10;99.90;;;;;;4996036;28;25100;-63
2022/07/20 04:53:59;;;;;;;29.55;18.48;;;23.10;99.90;;;;;;5001295;28;25117;-63
2022/07/20 04:56:25;;;;;;;31.75;17.65;;;23.10;99.90;;;;;;4994702;28;24996;-62
2022/07/20 04:58:52;;;;;;;30.08;19.08;;;23.00;99.90;;;;;;5002475;28;25082;-63
2022/07/20 05:01:20;;;;;;;34.42;17.25;;;23.00;99.90;;;;;;4989777;28;25069;-63
2022/07/20 05:03:45;;;;;;;29.92;16.35;;;23.00;99.90;;;;;;4989549;28;25074;-63
2022/07/20 05:06:11;;;;;;;33.17;18.25;;;23.00;99.90;;;;;;4985447;28;25154;-63
2022/07/20 05:08:37;;;;;;;26.50;15.80;;;23.10;99.90;;;;;;4991738;28;25071;-62
2022/07/20 05:11:02;;;;;;;23.35;15.93;;;23.00;99.90;;;;;;4987667;28;25071;-63
2022/07/20 05:13:28;;;;;;;34.85;15.88;;;23.00;99.90;;;;;;4994558;28;25084;-63
2022/07/20 05:15:54;;;;;;;30.58;16.48;;;23.00;99.90;;;;;;4983423;28;25054;-63
2022/07/20 05:18:19;;;;;;;33.45;14.80;;;23.00;99.90;;;;;;4995551;28;25159;-63
2022/07/20 05:20:45;;;;;;;27.58;15.05;;;22.90;99.90;;;;;;4993662;28;25075;-63
2022/07/20 05:23:10;;;;;;;29.33;14.75;;;23.00;99.90;;;;;;4984519;28;25105;-63
2022/07/20 05:25:39;;;;;;;28.00;15.60;;;22.90;99.90;;;;;;4982286;28;25065;-62
2022/07/20 05:28:08;;;;;;;31.35;14.40;;;22.90;99.90;;;;;;4978774;28;25131;-62
2022/07/20 05:30:33;;;;;;;30.90;14.43;;;23.00;99.90;;;;;;4974686;28;25056;-63
2022/07/20 05:32:59;;;;;;;29.20;14.05;;;23.00;99.90;;;;;;4984550;28;24979;-64
2022/07/20 05:35:25;;;;;;;24.60;13.55;;;23.00;99.90;;;;;;4977316;28;25100;-64
2022/07/20 05:37:50;;;;;;;35.88;13.60;;;23.10;99.90;;;;;;4974796;28;25056;-64
2022/07/20 05:40:16;;;;;;;34.20;13.95;;;23.10;99.90;;;;;;4975718;28;25057;-65
2022/07/20 05:42:42;;;;;;;32.25;13.57;;;23.20;99.90;;;;;;4971050;28;25078;-62
2022/07/20 05:45:08;;;;;;;26.20;13.35;;;23.30;99.90;;;;;;4982425;28;25052;-63
2022/07/20 05:47:33;;;;;;;28.67;13.13;;;23.30;99.90;;;;;;4983426;28;25079;-63
2022/07/20 05:49:59;;;;;;;25.75;12.50;;;23.30;99.90;;;;;;4976737;28;25104;-62
2022/07/20 05:52:25;;;;;;;27.40;11.63;;;23.40;99.90;;;;;;4970758;28;25077;-63
2022/07/20 05:54:50;;;;;;;31.40;13.60;;;23.30;99.90;;;;;;4971805;28;25091;-63
2022/07/20 05:57:16;;;;;;;25.70;13.13;;;23.50;99.90;;;;;;4982787;28;25056;-65
2022/07/20 05:59:41;;;;;;;31.42;12.35;;;23.60;99.90;;;;;;4984402;28;25140;-64
2022/07/20 06:02:08;;;;;;;24.92;14.25;;;23.60;99.90;;;;;;4996394;28;25078;-63
2022/07/20 06:04:34;;;;;;;18.88;12.75;;;23.50;99.90;;;;;;4974610;28;25055;-63
2022/07/20 06:06:59;;;;;;;26.15;12.85;;;23.40;99.90;;;;;;4975952;28;25139;-63
2022/07/20 06:09:25;;;;;;;25.58;12.38;;;23.40;99.90;;;;;;4974446;28;25137;-63
2022/07/20 06:11:50;;;;;;;34.22;12.68;;;23.30;99.90;;;;;;4979435;28;25071;-62
2022/07/20 06:14:16;;;;;;;24.50;12.13;;;23.40;99.90;;;;;;4973713;28;25062;-62
2022/07/20 06:16:41;;;;;;;23.90;12.20;;;23.50;99.90;;;;;;4980188;28;25077;-63
2022/07/20 06:19:07;;;;;;;24.90;12.50;;;23.50;99.90;;;;;;4974187;28;25066;-64
2022/07/20 06:21:32;;;;;;;27.10;12.18;;;23.60;99.90;;;;;;4976310;28;25089;-61
2022/07/20 06:23:58;;;;;;;25.85;12.50;;;23.60;99.90;;;;;;4981210;28;25059;-63
2022/07/20 06:26:24;;;;;;;22.85;12.50;;;23.60;99.90;;;;;;4972718;28;25055;-62
2022/07/20 06:28:49;;;;;;;30.80;11.05;;;23.60;99.90;;;;;;4978707;28;25069;-63
2022/07/20 06:31:15;;;;;;;22.92;11.00;;;23.60;99.90;;;;;;4973555;28;25123;-63
2022/07/20 06:33:40;;;;;;;23.15;12.43;;;23.60;99.90;;;;;;4978142;28;25142;-63
2022/07/20 06:36:06;;;;;;;20.60;11.25;;;23.60;99.90;;;;;;4975908;28;25087;-63
2022/07/20 06:38:34;;;;;;;28.98;11.85;;;23.80;99.90;;;;;;4975062;28;25076;-63
2022/07/20 06:40:59;;;;;;;23.77;11.75;;;24.00;99.90;;;;;;4975919;28;25052;-64
2022/07/20 06:43:25;;;;;;;26.83;11.68;;;24.00;99.90;;;;;;4975848;28;25063;-63
2022/07/20 06:45:51;;;;;;;27.80;12.68;;;24.20;99.90;;;;;;4987563;28;25132;-63
2022/07/20 06:48:16;;;;;;;26.90;12.05;;;24.00;99.90;;;;;;5000736;28;25068;-62
2022/07/20 06:50:42;;;;;;;25.00;11.52;;;23.90;99.90;;;;;;5000667;28;25077;-64
2022/07/20 06:53:08;;;;;;;23.42;11.32;;;23.90;99.90;;;;;;5003488;28;25083;-64
2022/07/20 06:55:33;;;;;;;23.55;11.25;;;23.80;99.90;;;;;;5006665;28;25162;-64
2022/07/20 06:57:59;;;;;;;19.92;10.27;;;23.70;99.90;;;;;;5004255;28;25077;-63
2022/07/20 07:00:24;;;;;;;26.60;10.50;;;23.60;99.90;;;;;;5006966;28;25102;-65
2022/07/20 07:02:50;;;;;;;26.85;10.65;;;23.60;99.90;;;;;;4993649;28;25058;-63
2022/07/20 07:05:15;;;;;;;26.90;10.88;;;23.70;99.90;;;;;;5002255;28;25072;-64
2022/07/20 07:07:41;;;;;;;23.50;10.75;;;23.70;99.90;;;;;;5004138;28;25061;-64
2022/07/20 07:10:07;;;;;;;24.42;10.93;;;23.90;99.90;;;;;;4997072;28;25079;-64
2022/07/20 07:12:32;;;;;;;22.73;11.02;;;24.10;99.90;;;;;;4999077;28;25084;-63
2022/07/20 07:14:58;;;;;;;21.92;9.77;;;24.30;99.90;;;;;;4997659;28;25101;-62
2022/07/20 07:17:24;;;;;;;22.98;10.20;;;24.70;99.90;;;;;;4994652;28;25085;-64
2022/07/20 07:19:49;;;;;;;24.10;10.00;;;24.80;99.90;;;;;;4992260;28;25067;-63
2022/07/20 07:22:15;;;;;;;23.40;10.25;;;24.80;99.90;;;;;;4986269;28;25049;-63
2022/07/20 07:24:40;;;;;;;22.33;10.57;;;24.90;99.90;;;;;;4990144;28;25087;-64
2022/07/20 07:27:06;;;;;;;22.88;10.48;;;25.00;99.90;;;;;;4987853;28;25060;-65
2022/07/20 07:29:32;;;;;;;17.27;10.00;;;24.80;99.90;;;;;;4996128;28;25057;-64
2022/07/20 07:32:00;;;;;;;22.17;10.23;;;25.00;99.90;;;;;;4994956;28;25057;-62
2022/07/20 07:34:27;;;;;;;18.88;9.75;;;25.10;99.90;;;;;;4998346;28;25095;-64
2022/07/20 07:36:53;;;;;;;25.27;10.65;;;25.20;99.90;;;;;;4996833;28;25070;-63
2022/07/20 07:39:18;;;;;;;19.63;10.30;;;25.20;99.90;;;;;;4989796;28;25154;-63
2022/07/20 07:41:44;;;;;;;20.45;9.35;;;25.40;99.90;;;;;;4992182;28;25101;-66
2022/07/20 07:44:09;;;;;;;21.77;9.90;;;25.60;99.90;;;;;;4980814;28;25160;-63
2022/07/20 07:46:35;;;;;;;22.67;10.35;;;25.70;99.90;;;;;;4987430;28;25071;-61
2022/07/20 07:49:02;;;;;;;19.92;10.38;;;25.50;99.90;;;;;;4994493;28;25066;-63
2022/07/20 07:51:27;;;;;;;18.58;10.52;;;25.60;99.90;;;;;;4987434;28;25073;-64
2022/07/20 07:53:53;;;;;;;18.23;9.38;;;25.90;99.90;;;;;;4996644;28;25064;-62
2022/07/20 07:56:19;;;;;;;23.55;10.48;;;25.60;99.90;;;;;;4985122;28;25073;-63
2022/07/20 07:58:45;;;;;;;21.20;10.95;;;25.50;99.90;;;;;;4981520;28;25088;-64
2022/07/20 08:01:10;;;;;;;18.85;10.05;;;25.70;99.90;;;;;;4977254;28;25096;-63
2022/07/20 08:03:36;;;;;;;16.38;11.55;;;25.90;99.90;;;;;;4980490;28;25080;-63
2022/07/20 08:06:04;;;;;;;17.00;10.25;;;26.00;99.90;;;;;;4972381;28;25143;-65
2022/07/20 08:08:30;;;;;;;28.85;10.88;;;26.00;99.90;;;;;;4976775;28;25138;-64
2022/07/20 08:10:56;;;;;;;23.25;9.73;;;26.00;99.90;;;;;;4977438;28;25105;-63
2022/07/20 08:13:22;;;;;;;20.45;10.60;;;26.00;99.90;;;;;;4992248;28;25151;-62
2022/07/20 08:15:48;;;;;;;19.55;10.85;;;26.30;99.90;;;;;;4988580;28;25057;-63
2022/07/20 08:18:13;;;;;;;22.85;9.98;;;26.50;99.90;;;;;;4979089;28;25123;-64
2022/07/20 08:20:39;;;;;;;15.45;10.48;;;26.70;99.90;;;;;;4992725;28;25092;-63
2022/07/20 08:23:05;;;;;;;17.58;9.93;;;26.80;99.90;;;;;;4997435;28;25078;-63
2022/07/20 08:25:30;;;;;;;23.50;10.88;;;26.70;99.90;;;;;;4982254;28;25065;-62
2022/07/20 08:28:12;;;;;;;21.98;9.10;;;26.40;99.90;;;;;;4974278;28;25054;-62
2022/07/20 08:30:39;;;;;;;19.63;9.77;;;26.30;99.90;;;;;;4978114;28;25145;-62
2022/07/20 08:33:05;;;;;;;23.95;9.23;;;26.40;99.90;;;;;;4977327;28;25156;-62
2022/07/20 08:35:30;;;;;;;14.30;8.60;;;26.50;99.90;;;;;;4968485;28;25170;-63
2022/07/20 08:37:57;;;;;;;40.53;10.02;;;26.60;99.90;;;;;;5005240;28;25146;-62
2022/07/20 08:40:22;;;;;;;13.38;6.75;;;26.50;99.90;;;;;;5012329;28;25063;-62
2022/07/20 08:42:48;;;;;;;16.52;7.10;;;26.30;97.30;;;;;;4999220;28;25070;-64
2022/07/20 08:45:14;;;;;;;14.27;6.88;;;26.00;97.00;;;;;;4993606;28;25052;-64
2022/07/20 08:47:41;;;;;;;15.57;6.75;;;26.20;97.10;;;;;;4991534;28;25080;-62
2022/07/20 08:50:07;;;;;;;14.15;6.65;;;26.20;97.00;;;;;;4997349;28;25151;-64
2022/07/20 08:52:32;;;;;;;18.85;6.63;;;26.00;97.10;;;;;;4993586;28;25166;-64
2022/07/20 08:54:58;;;;;;;12.80;6.68;;;26.30;97.60;;;;;;4993192;28;25061;-64
2022/07/20 08:57:25;;;;;;;13.75;6.63;;;26.60;97.60;;;;;;4993028;28;25108;-64
2022/07/20 08:59:50;;;;;;;19.30;7.22;;;27.10;95.70;;;;;;4987281;28;25076;-63
2022/07/20 09:02:16;;;;;;;16.13;7.18;;;27.50;93.30;;;;;;4978177;28;25092;-63
2022/07/20 09:04:52;;;;;;;11.25;6.82;;;27.40;90.20;;;;;;4982821;28;25056;-64
2022/07/20 09:07:39;;;;;;;11.70;7.50;;;27.20;90.30;;;;;;4985334;28;25140;-64
2022/07/20 09:10:08;;;;;;;14.30;7.32;;;27.10;90.90;;;;;;4980525;28;25074;-65
2022/07/20 09:12:57;;;;;;;12.77;7.43;;;26.90;91.90;;;;;;4993624;28;25086;-64
2022/07/20 09:15:38;;;;;;;19.70;8.13;;;26.40;94.30;;;;;;4991369;28;25090;-63
2022/07/20 09:18:11;;;;;;;11.40;6.55;;;26.50;95.40;;;;;;4983175;28;25081;-62
2022/07/20 09:20:40;;;;;;;15.68;6.93;;;26.30;96.40;;;;;;4975428;28;25108;-63
2022/07/20 09:23:12;;;;;;;12.88;7.38;;;26.60;97.10;;;;;;4973146;28;25168;-64
2022/07/20 09:25:48;;;;;;;15.18;7.82;;;26.60;96.10;;;;;;4975628;28;25086;-63
2022/07/20 09:28:13;;;;;;;10.73;7.50;;;26.70;95.80;;;;;;4974213;28;25054;-61
2022/07/20 09:30:40;;;;;;;13.43;7.68;;;26.80;94.40;;;;;;4978933;28;25069;-63
2022/07/20 09:33:05;;;;;;;11.52;6.60;;;26.70;93.90;;;;;;4982619;28;25052;-63
2022/07/20 09:35:33;;;;;;;9.73;6.78;;;26.50;94.70;;;;;;4986632;28;25054;-63
2022/07/20 09:38:04;;;;;;;13.32;7.07;;;26.60;96.00;;;;;;4992713;28;25062;-64
2022/07/20 09:40:45;;;;;;;16.00;6.87;;;27.20;93.70;;;;;;4991271;28;25070;-63
2022/07/20 09:43:36;;;;;;;16.55;6.38;;;27.60;92.70;;;;;;4980570;28;25086;-64
2022/07/20 09:46:09;;;;;;;11.85;6.50;;;27.90;92.00;;;;;;4991111;28;25098;-64
2022/07/20 09:48:45;;;;;;;17.70;7.80;;;27.50;93.80;;;;;;4997258;28;25081;-64
2022/07/20 09:51:18;;;;;;;11.68;6.07;;;27.40;93.00;;;;;;4999960;28;25070;-62
2022/07/20 09:53:43;;;;;;;14.13;6.78;;;27.10;91.10;;;;;;4998827;28;25078;-63
2022/07/20 09:56:09;;;;;;;12.60;6.70;;;27.00;92.80;;;;;;4999174;28;25078;-63
2022/07/20 09:58:36;;;;;;;14.27;7.32;;;26.70;91.80;;;;;;5001740;28;25097;-63
2022/07/20 10:01:02;;;;;;;12.13;6.82;;;26.50;92.60;;;;;;4997124;28;25069;-63
2022/07/20 10:03:29;;;;;;;14.73;7.15;;;26.60;93.50;;;;;;4995824;28;25143;-64
2022/07/20 10:05:55;;;;;;;12.70;6.53;;;26.80;93.80;;;;;;4982902;28;25099;-63
2022/07/20 10:08:23;;;;;;;16.58;7.43;;;27.00;92.50;;;;;;4997122;28;25112;-62
2022/07/20 10:10:48;;;;;;;14.88;6.40;;;27.50;91.60;;;;;;4999435;28;25137;-64
2022/07/20 10:13:14;;;;;;;10.23;6.18;;;27.60;88.30;;;;;;4996197;28;25143;-63
2022/07/20 10:15:58;;;;;;;8.35;5.13;;;28.00;88.30;;;;;;4998498;28;25059;-63
2022/07/20 10:18:25;;;;;;;11.18;6.45;;;27.80;79.10;;;;;;5000327;28;25161;-62
2022/07/20 10:20:50;;;;;;;9.48;6.43;;;27.10;86.10;;;;;;5000104;28;25135;-63
2022/07/20 10:23:16;;;;;;;7.47;5.68;;;26.80;92.40;;;;;;5004752;28;25068;-62
2022/07/20 10:25:42;;;;;;;9.68;5.60;;;27.00;93.10;;;;;;5017940;28;25060;-63
2022/07/20 10:28:23;;;;;;;12.18;5.93;;;27.50;92.50;;;;;;5007628;28;25072;-66
2022/07/20 10:30:55;;;;;;;9.93;6.32;;;28.10;88.50;;;;;;5007797;28;25123;-61
2022/07/20 10:33:21;;;;;;;14.15;6.50;;;27.50;87.90;;;;;;4995059;28;25082;-63
2022/07/20 10:35:48;;;;;;;12.68;7.20;;;26.90;90.50;;;;;;5000707;28;25096;-62
2022/07/20 10:38:21;;;;;;;10.00;6.88;;;26.30;94.10;;;;;;5000024;28;25071;-63
2022/07/20 10:44:22;;;;;;;15.15;8.23;;;26.50;96.10;;;;;;4986393;28;25067;-64
2022/07/20 10:46:49;;;;;;;12.98;6.95;;;26.60;96.70;;;;;;5000159;28;25084;-63
2022/07/20 10:49:15;;;;;;;16.05;7.68;;;26.90;96.70;;;;;;5005644;28;25067;-63
2022/07/20 10:51:41;;;;;;;14.13;7.07;;;26.90;96.70;;;;;;4998804;28;24974;-63
2022/07/20 10:54:32;;;;;;;13.95;7.20;;;27.00;98.50;;;;;;5003496;28;25067;-63
2022/07/20 10:57:02;;;;;;;11.93;6.38;;;26.60;98.20;;;;;;4990791;28;25068;-64
2022/07/20 10:59:27;;;;;;;11.52;7.03;;;26.20;99.70;;;;;;4999469;28;25053;-64
2022/07/20 11:01:53;;;;;;;10.07;6.90;;;26.10;99.90;;;;;;4995637;28;25084;-64
2022/07/20 11:04:22;;;;;;;10.60;7.20;;;26.00;99.90;;;;;;5000857;28;25051;-64
2022/07/20 11:06:49;;;;;;;12.63;7.28;;;26.30;99.90;;;;;;4999807;28;25076;-62
2022/07/20 11:09:15;;;;;;;10.27;7.13;;;26.00;99.90;;;;;;5004642;28;25152;-63
2022/07/20 11:11:42;;;;;;;8.93;5.88;;;26.10;99.90;;;;;;4996762;28;25073;-65
2022/07/20 11:14:10;;;;;;;15.82;7.10;;;26.30;99.90;;;;;;5000907;28;25059;-62
2022/07/20 11:16:37;;;;;;;10.80;7.07;;;26.30;99.90;;;;;;5001718;28;25115;-62
2022/07/20 11:19:05;;;;;;;11.90;7.38;;;26.30;99.90;;;;;;5001163;28;25064;-63
2022/07/20 11:21:33;;;;;;;10.05;6.25;;;26.80;99.90;;;;;;4999414;28;25072;-64
2022/07/20 11:23:59;;;;;;;11.60;7.68;;;26.50;99.90;;;;;;4997039;28;25093;-63
2022/07/20 11:26:25;;;;;;;15.05;7.60;;;26.30;99.90;;;;;;4996279;28;25100;-61
2022/07/20 11:28:56;;;;;;;14.70;7.60;;;26.50;99.90;;;;;;5007098;28;25090;-64
2022/07/20 11:31:29;;;;;;;13.70;8.00;;;26.70;99.90;;;;;;4994787;28;25079;-63
2022/07/20 11:33:57;;;;;;;17.50;8.43;;;27.00;99.90;;;;;;4997413;28;25052;-63
2022/07/20 11:36:26;;;;;;;12.05;7.65;;;27.60;99.80;;;;;;5001044;28;25152;-63
2022/07/20 11:38:54;;;;;;;12.82;8.10;;;27.20;99.90;;;;;;5003903;28;25141;-64
2022/07/20 11:41:23;;;;;;;18.45;8.10;;;26.70;99.90;;;;;;4992190;28;25120;-64
2022/07/20 11:43:50;;;;;;;11.00;7.13;;;25.70;99.90;;;;;;5001041;28;25079;-63
2022/07/20 11:46:24;;;;;;;42.08;10.13;;;25.20;99.90;;;;;;4993079;28;25106;-62
2022/07/20 11:48:57;;;;;;;14.65;8.27;;;25.20;99.90;;;;;;4999850;28;25057;-61
2022/07/20 11:51:23;;;;;;;12.27;7.57;;;24.90;99.90;;;;;;4996577;28;25061;-62
2022/07/20 11:53:49;;;;;;;14.32;8.30;;;24.70;99.90;;;;;;4998130;28;25059;-64
2022/07/20 11:56:20;;;;;;;13.55;7.57;;;24.50;99.90;;;;;;4997813;28;25100;-64
2022/07/20 11:58:48;;;;;;;17.15;8.82;;;24.70;99.90;;;;;;4990692;28;25058;-63
2022/07/20 12:01:19;;;;;;;11.82;7.85;;;24.90;99.90;;;;;;4994554;28;25137;-63
2022/07/20 12:03:50;;;;;;;16.80;8.80;;;25.20;99.90;;;;;;4993238;28;25153;-64
2022/07/20 12:06:16;;;;;;;19.53;9.53;;;24.90;99.90;;;;;;5002233;28;25061;-64
2022/07/20 12:08:42;;;;;;;13.07;9.20;;;24.30;99.90;;;;;;5001798;28;25052;-64
2022/07/20 12:11:09;;;;;;;15.40;9.30;;;24.40;99.90;;;;;;4998793;28;25054;-64
2022/07/20 12:13:49;;;;;;;16.23;9.85;;;24.40;99.90;;;;;;4998231;28;25070;-64
2022/07/20 12:16:16;;;;;;;15.00;9.55;;;24.40;99.90;;;;;;5003939;28;25074;-63
2022/07/20 12:18:45;;;;;;;18.45;10.18;;;24.40;99.90;;;;;;4998716;28;25078;-65
2022/07/20 12:21:15;;;;;;;17.10;11.55;;;24.40;99.90;;;;;;4999791;28;25054;-62
2022/07/20 12:23:43;;;;;;;19.27;11.43;;;24.10;99.90;;;;;;5004189;28;25060;-64
2022/07/20 12:26:31;;;;;;;14.55;9.55;;;23.90;99.90;;;;;;4996256;28;25155;-64
2022/07/20 12:29:16;;;;;;;17.00;10.57;;;23.90;99.90;;;;;;4990397;28;25079;-64
2022/07/20 12:31:42;;;;;;;16.77;10.32;;;24.20;99.90;;;;;;4978900;28;25069;-63
2022/07/20 12:34:10;;;;;;;14.77;9.75;;;24.20;99.90;;;;;;4992667;28;25083;-64
2022/07/20 12:36:37;;;;;;;13.80;9.50;;;24.30;99.90;;;;;;4997802;28;25069;-64
2022/07/20 12:39:06;;;;;;;14.95;9.65;;;24.30;99.90;;;;;;4996612;28;25062;-63
2022/07/20 12:41:32;;;;;;;17.83;10.35;;;24.50;99.90;;;;;;5006239;28;25062;-63